Fort Lauderdale Hollywood International Airport
KFLL : now visible

Airfield :











YOU CAN JOIN US ON...

 
LOGIN :

Register | Disclaimer

   EN    FR    IT 

 









Legend :    VFR   Marginal VFR   IFR   Intensive IFR   Very Intensive IFR
Visi :
Ceiling :
>= 8 km
>= 3000ft
5 to 8 km
1000 to 3000 ft
1500m to 5 km
500 to 1000 ft
800 to 1500m
200 to 500 ft
< 800m
< 200 ft
Symbols :   Thunderstorms  Fog  Heavy snow  Heavy precipitations  Wind > 20 kt






- Airport Elevation : 9 ft
- IATA code : FLL


KFLL - Fort Lauderdale Hollywood International

CURRENT METAR :
  • 080553Z 16007KT 10SM FEW019 SCT027 BKN055 26/22 A3000 RMK AO2 SLP157 T02560217 10261 20256 58015

EXPIRED METARs :
  • 080453Z 14008KT 10SM FEW022 BKN047 26/21 A3002 RMK AO2 SLP164 T02560211 402890239
  • 080353Z 13007KT 10SM FEW022 SCT027 BKN047 26/21 A3004 RMK AO2 SLP171 T02560211

TAF KFLL
Valid from the 08 at 06:00 until the 09 at 12:00 UTC


080529Z 0806/0912 VRB05KT P6SM SCT020 BKN050
FM081500 22010KT P6SM SCT025 SCT050
FM081800 19012KT P6SM SCT030 SCT050
FM090200 24005KT P6SM FEW250



MET'MAP, your aeronautical weather chart ! - Copyright ORBIFLY December 2007 - Disclaimer

ORBIFLY MET'MAP TEAM :

Programming & Development : Alexandra Zaïnal
Concept & original design : Baudouin d'Aumeries
Assistance for programming : Marc-Olivier Méhu
Technical & hardware support : Manuel Goepfert

Contact : metmap@orbifly.com




SOURCES & CREDITS :

   NOAA       Earth
Advisory